Time;durP1;ratioP1;P1;durP2;ratioP2;P2;SDS_P1;SDS_P2;PMS_P1;PMS_P2;Temp;Humidity;BMP_temperature;BMP_pressure;BME280_temperature;BME280_humidity;BME280_pressure;Samples;Min_cycle;Max_cycle;Signal;HPM_P1;HPM_P2
2022/06/10 00:01:27;;;;;;;21.52;8.53;;;;;;;17.65;81.17;100750.41;1939088;74;21012;-64
2022/06/10 00:03:55;;;;;;;16.05;8.05;;;;;;;17.67;80.97;100752.48;1939147;74;21035;-64
2022/06/10 00:06:24;;;;;;;19.45;8.30;;;;;;;17.69;80.85;100751.90;1939019;74;21007;-65
2022/06/10 00:08:52;;;;;;;19.05;7.03;;;;;;;17.70;80.75;100756.25;1939666;74;21090;-64
2022/06/10 00:11:21;;;;;;;15.63;7.00;;;;;;;17.73;80.65;100755.20;1948647;74;21090;-64
2022/06/10 00:13:55;;;;;;;20.97;7.15;;;;;;;17.71;80.48;100748.65;1948619;74;21368;-64
2022/06/10 00:16:22;;;;;;;17.98;6.67;;;;;;;17.72;80.45;100758.36;1947846;74;21136;-64
2022/06/10 00:18:51;;;;;;;12.15;6.40;;;;;;;17.70;80.29;100761.58;1948677;73;21027;-65
2022/06/10 00:21:21;;;;;;;16.17;7.72;;;;;;;17.69;80.16;100758.55;1948559;74;21423;-57
2022/06/10 00:23:50;;;;;;;12.70;6.87;;;;;;;17.68;80.38;100763.98;1948689;74;21003;-59
2022/06/10 00:26:20;;;;;;;17.15;7.62;;;;;;;17.67;80.79;100765.80;1948598;74;21031;-59
2022/06/10 00:28:49;;;;;;;20.57;7.60;;;;;;;17.65;81.01;100766.84;1948600;73;21478;-59
2022/06/10 00:31:18;;;;;;;16.35;7.70;;;;;;;17.64;80.84;100765.16;1948668;74;21121;-59
2022/06/10 00:33:47;;;;;;;16.87;7.22;;;;;;;17.64;81.35;100764.67;1948519;74;21007;-59
2022/06/10 00:36:15;;;;;;;17.05;8.38;;;;;;;17.62;81.55;100767.92;1948551;73;21102;-59
2022/06/10 00:38:44;;;;;;;23.38;10.93;;;;;;;17.62;81.60;100765.74;1948586;74;21046;-60
2022/06/10 00:41:13;;;;;;;19.77;9.50;;;;;;;17.60;81.83;100773.83;1948735;74;21101;-60
2022/06/10 00:43:42;;;;;;;14.87;7.87;;;;;;;17.56;81.86;100778.50;1948580;74;21521;-62
2022/06/10 00:46:37;;;;;;;25.65;8.35;;;;;;;17.50;82.20;100772.73;1948474;74;21034;-62
2022/06/10 00:49:11;;;;;;;14.43;7.40;;;;;;;17.44;82.37;100778.48;1948730;73;21007;-62
2022/06/10 00:51:46;;;;;;;18.37;8.00;;;;;;;17.39;82.61;100777.44;1948588;74;21027;-62
2022/06/10 00:54:30;;;;;;;15.30;7.55;;;;;;;17.34;82.96;100779.09;1948518;74;21093;-62
2022/06/10 00:57:20;;;;;;;21.17;7.58;;;;;;;17.31;83.12;100780.63;1948720;73;21035;-62
2022/06/10 00:59:51;;;;;;;20.10;8.18;;;;;;;17.30;83.19;100781.59;1948609;74;21630;-62
2022/06/10 01:02:24;;;;;;;13.32;5.78;;;;;;;17.26;83.35;100778.73;1948701;74;21067;-62
2022/06/10 01:04:57;;;;;;;16.95;7.08;;;;;;;17.25;83.35;100788.18;1948498;73;21035;-63
2022/06/10 01:07:28;;;;;;;13.35;6.35;;;;;;;17.24;83.54;100787.30;1948917;74;21407;-62
2022/06/10 01:09:57;;;;;;;23.02;8.30;;;;;;;17.25;83.45;100785.03;1945652;73;21560;-63
2022/06/10 01:12:45;;;;;;;17.10;7.37;;;;;;;17.25;83.68;100783.70;1939061;74;21044;-62
2022/06/10 01:15:33;;;;;;;17.75;6.95;;;;;;;17.27;83.67;100788.45;1939071;74;21470;-63
2022/06/10 01:18:14;;;;;;;14.25;6.80;;;;;;;17.30;83.60;100780.27;1939303;74;21529;-62
2022/06/10 01:20:55;;;;;;;18.75;7.12;;;;;;;17.34;83.33;100780.92;1939039;74;21051;-62
2022/06/10 01:24:00;;;;;;;19.48;7.10;;;;;;;17.35;83.05;100779.48;1939299;74;21004;-62
2022/06/10 01:29:17;;;;;;;16.48;6.47;;;;;;;17.44;82.49;100779.81;1881453;74;21427;-62
2022/06/10 01:31:54;;;;;;;11.08;6.33;;;;;;;17.47;82.29;100778.28;1938003;74;21008;-62
2022/06/10 01:34:35;;;;;;;17.85;7.20;;;;;;;17.54;82.51;100784.91;1939011;74;21501;-62
2022/06/10 01:37:06;;;;;;;19.55;7.53;;;;;;;17.59;82.95;100785.42;1938279;74;21035;-62
2022/06/10 01:40:05;;;;;;;13.05;6.37;;;;;;;17.63;83.14;100788.27;1939146;74;21028;-62
2022/06/10 01:42:40;;;;;;;12.00;5.80;;;;;;;17.66;83.32;100788.53;1939025;74;21004;-60
2022/06/10 01:45:35;;;;;;;15.83;6.83;;;;;;;17.67;83.15;100787.10;1939088;74;21093;-61
2022/06/10 01:48:12;;;;;;;16.55;6.40;;;;;;;17.71;82.98;100787.75;1937708;74;21489;-62
2022/06/10 01:50:50;;;;;;;14.87;6.47;;;;;;;17.73;82.81;100792.00;1939175;74;21118;-58
2022/06/10 01:53:25;;;;;;;16.65;6.55;;;;;;;17.76;82.64;100796.25;1939153;74;21007;-68
2022/06/10 01:56:14;;;;;;;18.75;5.53;;;;;;;17.79;82.41;100795.20;1939083;74;21047;-68
2022/06/10 01:58:49;;;;;;;13.25;5.90;;;;;;;17.78;82.20;100790.37;1939319;74;21078;-65
2022/06/10 02:01:23;;;;;;;12.28;5.70;;;;;;;17.77;82.05;100789.14;1939085;74;21113;-61
2022/06/10 02:03:57;;;;;;;13.28;5.53;;;;;;;17.75;81.84;100792.74;1939242;74;21435;-60
2022/06/10 02:06:29;;;;;;;15.30;6.30;;;;;;;17.77;81.67;100792.64;1938397;74;21153;-61
2022/06/10 02:09:00;;;;;;;20.02;6.67;;;;;;;17.77;81.49;100795.80;1939226;74;21032;-61
2022/06/10 02:11:31;;;;;;;16.90;6.12;;;;;;;17.80;81.43;100798.23;1943244;74;21055;-61
2022/06/10 02:14:15;;;;;;;11.40;5.55;;;;;;;17.86;81.40;100795.20;1948622;73;21110;-61
2022/06/10 02:16:46;;;;;;;17.27;7.12;;;;;;;17.94;81.45;100798.17;1918620;74;21118;-60
2022/06/10 02:19:36;;;;;;;16.35;8.05;;;;;;;17.98;81.44;100798.33;1948664;73;21031;-60
2022/06/10 02:22:13;;;;;;;14.43;5.80;;;;;;;18.06;81.46;100799.99;1948559;73;21035;-60
2022/06/10 02:24:48;;;;;;;9.43;5.17;;;;;;;18.17;81.56;100794.38;1948839;73;21368;-60
2022/06/10 02:27:22;;;;;;;13.90;5.90;;;;;;;18.30;81.54;100792.58;1948655;74;21027;-60
2022/06/10 02:30:04;;;;;;;10.48;5.33;;;;;;;18.42;81.48;100797.02;1948664;73;21023;-60
2022/06/10 02:32:34;;;;;;;15.00;6.05;;;;;;;18.51;81.30;100799.03;1947698;73;21140;-60
2022/06/10 02:35:05;;;;;;;10.38;5.80;;;;;;;18.52;80.87;100798.08;1948664;73;21035;-60
2022/06/10 02:38:12;;;;;;;15.20;6.12;;;;;;;18.49;80.49;100796.95;1948626;74;21070;-60
2022/06/10 02:40:56;;;;;;;16.77;6.55;;;;;;;18.54;80.34;100799.80;1948743;73;21031;-59
2022/06/10 02:43:35;;;;;;;;;;;;;;;18.57;80.17;100803.56;1951491;73;21031;-59
2022/06/10 02:46:15;;;;;;;12.37;5.25;;;;;;;18.63;80.11;100808.47;1948692;74;20186;-59
2022/06/10 02:49:09;;;;;;;14.65;4.87;;;;;;;18.75;80.09;100806.72;1947694;74;21493;-64
2022/06/10 02:51:39;;;;;;;16.00;6.10;;;;;;;18.86;80.33;100811.66;1948616;74;21019;-64
2022/06/10 02:54:16;;;;;;;11.45;5.70;;;;;;;18.99;80.44;100813.45;1948606;74;21521;-62
2022/06/10 02:56:45;;;;;;;11.43;5.45;;;;;;;19.15;80.59;100814.03;1938214;74;21035;-59
2022/06/10 03:02:07;;;;;;;16.55;6.78;;;;;;;19.56;80.80;100815.41;1948579;74;21517;-61
2022/06/10 03:04:44;;;;;;;20.08;6.67;;;;;;;19.82;80.90;100813.45;1927419;73;21097;-63
2022/06/10 03:07:44;;;;;;;12.47;5.37;;;;;;;20.10;80.97;100817.98;1948581;73;21083;-62
2022/06/10 03:10:34;;;;;;;9.05;4.60;;;;;;;20.35;80.81;100822.27;1948567;73;21572;-62
2022/06/10 03:13:14;;;;;;;11.12;4.90;;;;;;;20.66;80.56;100816.32;1939536;74;21545;-62
2022/06/10 03:15:52;;;;;;;8.35;4.92;;;;;;;20.89;79.93;100816.66;1938267;74;21087;-62
2022/06/10 03:18:29;;;;;;;10.03;5.00;;;;;;;21.10;79.58;100818.55;1924551;74;21036;-61
2022/06/10 03:21:07;;;;;;;12.98;5.55;;;;;;;21.33;79.32;100818.84;1936839;74;21028;-58
2022/06/10 03:23:56;;;;;;;14.53;5.03;;;;;;;21.56;79.13;100815.63;1939124;74;21531;-61
2022/06/10 03:26:39;;;;;;;10.58;4.60;;;;;;;21.73;78.32;100817.37;1939138;74;21093;-60
2022/06/10 03:29:10;;;;;;;8.35;3.75;;;;;;;21.88;77.78;100820.06;1938990;74;21204;-61
2022/06/10 03:31:41;;;;;;;7.80;4.22;;;;;;;21.98;76.73;100814.29;1939202;74;21000;-62
2022/06/10 03:34:19;;;;;;;7.22;4.22;;;;;;;21.99;75.44;100812.45;1939173;74;21019;-62
2022/06/10 03:36:49;;;;;;;10.95;4.08;;;;;;;22.05;75.04;100817.77;1938377;74;20996;-63
2022/06/10 03:39:20;;;;;;;7.42;3.47;;;;;;;22.17;74.98;100822.92;1939157;74;21498;-62
2022/06/10 03:42:01;;;;;;;4.78;3.33;;;;;;;22.31;74.84;100823.08;1939203;74;21438;-63
2022/06/10 03:44:30;;;;;;;7.58;3.75;;;;;;;22.53;74.49;100822.55;1938151;74;21059;-61
2022/06/10 03:47:00;;;;;;;8.10;3.17;;;;;;;22.70;73.88;100817.89;1939120;74;21639;-61
2022/06/10 03:49:31;;;;;;;8.23;3.58;;;;;;;22.78;73.33;100813.17;1939050;74;21098;-60
2022/06/10 03:52:02;;;;;;;12.37;3.08;;;;;;;22.85;72.86;100817.47;1939172;74;21215;-60
2022/06/10 03:54:32;;;;;;;6.25;3.52;;;;;;;22.91;72.27;100818.28;1939043;74;21483;-64
2022/06/10 03:57:00;;;;;;;4.90;3.12;;;;;;;22.94;71.58;100809.94;1938813;74;21035;-61
2022/06/10 03:59:29;;;;;;;5.20;3.02;;;;;;;22.96;70.89;100805.27;1939039;74;21034;-62
2022/06/10 04:01:57;;;;;;;7.78;3.95;;;;;;;22.98;70.26;100811.38;1939115;74;21031;-62
2022/06/10 04:04:26;;;;;;;5.00;3.02;;;;;;;23.02;69.70;100814.13;1939095;74;21036;-62
2022/06/10 04:06:55;;;;;;;5.15;2.90;;;;;;;23.09;69.28;100811.28;1939242;74;21012;-62
2022/06/10 04:09:24;;;;;;;6.30;3.00;;;;;;;23.21;68.60;100817.86;1939099;74;21176;-63
2022/06/10 04:11:52;;;;;;;5.25;2.75;;;;;;;23.32;68.20;100812.35;1941022;74;21136;-63
2022/06/10 04:14:22;;;;;;;4.35;2.55;;;;;;;23.45;67.82;100816.94;1948580;72;21075;-61
2022/06/10 04:16:50;;;;;;;4.67;2.83;;;;;;;23.66;67.57;100818.62;1948658;73;21124;-62
2022/06/10 04:19:22;;;;;;;6.00;3.15;;;;;;;23.91;67.20;100816.37;1948559;73;21031;-61
2022/06/10 04:21:51;;;;;;;4.80;2.85;;;;;;;24.17;66.64;100822.80;1917568;74;21020;-62
2022/06/10 04:24:21;;;;;;;7.37;3.02;;;;;;;24.44;65.99;100831.92;1947696;74;21612;-61
2022/06/10 04:26:50;;;;;;;5.00;3.12;;;;;;;24.72;65.03;100829.27;1948633;74;21104;-62
2022/06/10 04:29:22;;;;;;;7.92;3.08;;;;;;;24.89;63.78;100828.45;1948609;74;21085;-62
2022/06/10 04:31:50;;;;;;;5.70;3.40;;;;;;;25.16;64.10;100833.47;1948662;74;21447;-62
2022/06/10 04:34:19;;;;;;;4.60;3.00;;;;;;;25.52;63.96;100836.19;1948571;74;21023;-61
2022/06/10 04:36:48;;;;;;;6.40;2.80;;;;;;;25.73;62.68;100843.45;1948705;74;21023;-61
2022/06/10 04:39:16;;;;;;;4.25;2.87;;;;;;;25.95;62.56;100834.04;1948825;73;21019;-60
2022/06/10 04:41:45;;;;;;;6.92;3.33;;;;;;;26.18;62.23;100837.04;1948494;74;21007;-62
2022/06/10 04:44:14;;;;;;;8.20;3.50;;;;;;;26.45;61.92;100839.23;1948666;74;21442;-61
2022/06/10 04:46:44;;;;;;;7.35;3.05;;;;;;;26.64;60.85;100838.66;1948782;74;21137;-61
2022/06/10 04:49:13;;;;;;;5.65;2.90;;;;;;;26.73;59.67;100847.14;1948696;74;21039;-60
2022/06/10 04:51:42;;;;;;;5.58;2.92;;;;;;;26.87;59.42;100838.42;1948583;74;21110;-60
2022/06/10 04:54:11;;;;;;;6.05;3.08;;;;;;;26.99;58.85;100843.52;1948459;74;21105;-62
2022/06/10 04:56:40;;;;;;;6.85;3.10;;;;;;;27.07;58.32;100836.77;1948501;73;21106;-62
2022/06/10 04:59:09;;;;;;;3.87;2.42;;;;;;;27.36;58.45;100842.27;1948706;74;21007;-63
2022/06/10 05:01:38;;;;;;;4.75;2.52;;;;;;;27.48;57.61;100842.26;1948550;74;21039;-63
2022/06/10 05:04:06;;;;;;;5.58;2.72;;;;;;;27.77;57.38;100844.45;1948580;73;21106;-63
2022/06/10 05:06:35;;;;;;;6.00;2.90;;;;;;;27.97;56.79;100836.03;1948661;74;21140;-60
2022/06/10 05:09:04;;;;;;;6.35;3.17;;;;;;;28.31;56.67;100846.59;1948419;74;21100;-60
2022/06/10 05:11:32;;;;;;;5.35;2.87;;;;;;;28.51;55.40;100842.98;1948486;74;21533;-60
2022/06/10 05:14:04;;;;;;;6.47;2.87;;;;;;;28.37;53.20;100840.50;1948820;74;21047;-61
2022/06/10 05:16:32;;;;;;;3.98;2.62;;;;;;;28.24;52.71;100834.80;1948676;74;21003;-59
2022/06/10 05:19:01;;;;;;;6.47;3.15;;;;;;;28.21;53.14;100843.25;1948672;74;21145;-61
2022/06/10 05:21:33;;;;;;;6.25;2.70;;;;;;;28.35;53.06;100841.19;1947544;73;21158;-60
2022/06/10 05:24:01;;;;;;;3.35;2.95;;;;;;;28.56;53.38;100846.05;1948640;74;21097;-63
2022/06/10 05:26:32;;;;;;;3.87;2.92;;;;;;;28.87;52.07;100850.14;1948559;74;21027;-62
2022/06/10 05:29:02;;;;;;;10.48;3.12;;;;;;;28.71;52.43;100856.98;1948548;74;21003;-63
2022/06/10 05:31:32;;;;;;;3.80;2.72;;;;;;;28.62;51.42;100855.34;1947850;74;21538;-63
2022/06/10 05:36:48;;;;;;;7.80;3.45;;;;;;;28.16;52.16;100856.45;1948587;74;21008;-62
2022/06/10 05:39:16;;;;;;;4.80;2.87;;;;;;;27.48;51.78;100853.94;1948553;74;21015;-61
2022/06/10 05:44:32;;;;;;;10.43;3.52;;;;;;;26.44;53.27;100862.33;1948465;74;21015;-62
2022/06/10 05:47:01;;;;;;;9.50;3.08;;;;;;;26.06;53.91;100865.31;1948523;74;21026;-62
2022/06/10 05:49:31;;;;;;;7.60;3.22;;;;;;;25.85;54.60;100872.87;1948621;74;21027;-62
2022/06/10 05:52:00;;;;;;;7.42;3.20;;;;;;;25.82;54.81;100874.01;1948518;74;21457;-62
2022/06/10 05:54:29;;;;;;;6.05;2.47;;;;;;;25.80;54.86;100872.84;1948420;74;21101;-61
2022/06/10 05:56:58;;;;;;;5.33;2.52;;;;;;;25.79;54.90;100877.87;1948410;74;21043;-63
2022/06/10 05:59:29;;;;;;;4.25;2.77;;;;;;;25.77;54.87;100881.23;1948583;74;21035;-63
2022/06/10 06:01:57;;;;;;;5.25;2.80;;;;;;;25.81;54.98;100880.42;1948259;74;21007;-62
2022/06/10 06:04:26;;;;;;;5.17;3.30;;;;;;;25.97;55.07;100878.41;1948679;74;21422;-63
2022/06/10 06:06:55;;;;;;;4.15;3.05;;;;;;;26.23;55.03;100872.14;1948510;74;21004;-63
2022/06/10 06:09:23;;;;;;;4.50;3.22;;;;;;;26.36;54.75;100872.59;1948474;74;20999;-63
2022/06/10 06:11:56;;;;;;;7.60;3.12;;;;;;;26.48;54.61;100875.84;1948643;74;21072;-63
2022/06/10 06:14:26;;;;;;;7.28;2.90;;;;;;;26.56;54.67;100876.74;1918097;73;21143;-62
2022/06/10 06:17:03;;;;;;;5.30;3.40;;;;;;;26.72;54.70;100882.73;1898491;75;20996;-62
2022/06/10 06:19:34;;;;;;;9.85;3.22;;;;;;;27.21;54.58;100881.23;1898655;75;21051;-63
2022/06/10 06:22:03;;;;;;;4.85;2.77;;;;;;;27.45;54.12;100879.95;1898355;75;21557;-57
2022/06/10 06:24:33;;;;;;;5.55;3.33;;;;;;;27.37;52.64;100875.03;1898438;75;21117;-57
2022/06/10 06:27:02;;;;;;;5.62;2.67;;;;;;;27.07;52.12;100881.36;1898502;75;21032;-59
2022/06/10 06:29:31;;;;;;;6.65;2.55;;;;;;;26.82;52.17;100882.63;1898498;75;21474;-58
2022/06/10 06:31:59;;;;;;;6.45;2.72;;;;;;;26.69;52.25;100885.78;1898516;75;21015;-59
2022/06/10 06:34:28;;;;;;;4.35;3.17;;;;;;;26.64;52.67;100887.28;1898459;75;21109;-58
2022/06/10 06:36:57;;;;;;;5.12;2.92;;;;;;;26.68;52.86;100881.37;1898723;75;21117;-59
2022/06/10 06:39:27;;;;;;;3.52;2.40;;;;;;;26.86;52.95;100884.50;1887167;75;21075;-66
2022/06/10 06:41:56;;;;;;;6.30;2.80;;;;;;;26.99;52.58;100891.64;1867952;75;21189;-68
2022/06/10 06:44:27;;;;;;;4.87;2.87;;;;;;;27.15;52.52;100884.09;1873137;75;21138;-65
2022/06/10 06:46:55;;;;;;;11.08;3.05;;;;;;;27.51;52.43;100883.84;1898589;75;21561;-66
2022/06/10 06:49:26;;;;;;;4.62;2.70;;;;;;;27.74;52.32;100881.34;1898594;75;21115;-63
2022/06/10 06:51:56;;;;;;;6.20;3.20;;;;;;;27.84;52.21;100879.81;1898536;75;21016;-64
2022/06/10 06:54:26;;;;;;;4.37;2.83;;;;;;;27.98;52.29;100888.64;1898668;75;21178;-65
2022/06/10 06:56:54;;;;;;;6.50;2.80;;;;;;;28.25;52.04;100888.74;1898614;75;21093;-67
2022/06/10 06:59:23;;;;;;;5.25;2.90;;;;;;;28.75;51.70;100889.48;1898659;75;21031;-69
2022/06/10 07:01:51;;;;;;;5.80;3.12;;;;;;;29.67;51.01;100888.80;1898548;75;21085;-64
2022/06/10 07:04:20;;;;;;;4.17;2.60;;;;;;;29.98;49.23;100891.45;1898604;75;21027;-64
2022/06/10 07:06:49;;;;;;;5.37;2.80;;;;;;;29.84;48.30;100889.53;1898562;75;21141;-62
2022/06/10 07:09:17;;;;;;;4.55;2.47;;;;;;;29.40;47.05;100897.83;1898702;75;21536;-62
2022/06/10 07:11:46;;;;;;;8.00;2.72;;;;;;;28.94;47.19;100896.84;1898572;75;21113;-65
2022/06/10 07:14:16;;;;;;;6.65;2.50;;;;;;;28.57;47.72;100894.28;1898494;74;21121;-67
2022/06/10 07:16:44;;;;;;;7.47;2.50;;;;;;;28.66;47.86;100898.66;1898531;75;21518;-64
2022/06/10 07:19:13;;;;;;;3.00;2.47;;;;;;;29.45;47.52;100900.85;1898713;75;21024;-62
2022/06/10 07:21:41;;;;;;;5.28;2.60;;;;;;;30.25;46.28;100902.75;1898615;75;21140;-60
2022/06/10 07:24:10;;;;;;;4.37;2.62;;;;;;;30.97;45.40;100900.78;1898584;75;21085;-66
2022/06/10 07:26:39;;;;;;;5.72;3.20;;;;;;;31.64;44.22;100893.89;1898461;75;21067;-64
2022/06/10 07:29:10;;;;;;;6.55;2.95;;;;;;;32.24;43.48;100902.06;1898631;75;21023;-64
2022/06/10 07:31:41;;;;;;;5.20;2.55;;;;;;;32.91;42.34;100907.92;1898518;75;21466;-61
2022/06/10 07:34:10;;;;;;;4.92;3.22;;;;;;;33.04;42.02;100907.96;1877417;75;21027;-62
2022/06/10 07:36:40;;;;;;;4.47;2.30;;;;;;;33.27;39.20;100899.98;1866412;77;21486;-59
2022/06/10 07:39:08;;;;;;;7.33;2.60;;;;;;;32.50;39.32;100908.73;1866115;77;21101;-62
2022/06/10 07:44:24;;;;;;;4.37;2.58;;;;;;;31.99;40.43;100900.80;1866318;77;21192;-60
2022/06/10 07:46:56;;;;;;;5.00;2.20;;;;;;;31.50;41.05;100905.15;1866282;77;21007;-64
2022/06/10 07:49:26;;;;;;;4.50;2.72;;;;;;;31.08;41.82;100906.73;1866471;77;21653;-62
2022/06/10 07:51:54;;;;;;;4.33;2.87;;;;;;;31.65;41.64;100903.72;1876642;75;21027;-64
2022/06/10 07:54:23;;;;;;;5.33;2.87;;;;;;;32.27;40.64;100911.19;1867548;75;21011;-61
2022/06/10 07:56:53;;;;;;;3.80;2.25;;;;;;;32.99;40.58;100903.64;1873256;75;21450;-62
2022/06/10 07:59:22;;;;;;;4.50;2.45;;;;;;;33.54;39.96;100908.23;1898545;75;21071;-62
2022/06/10 08:01:51;;;;;;;8.85;2.47;;;;;;;32.93;39.42;100903.10;1898554;75;21117;-62
2022/06/10 08:04:21;;;;;;;6.35;2.65;;;;;;;32.24;40.01;100903.43;1898442;75;21027;-62
2022/06/10 08:06:51;;;;;;;4.03;2.83;;;;;;;31.62;40.73;100899.52;1898675;75;21451;-62
2022/06/10 08:09:21;;;;;;;4.03;2.70;;;;;;;30.87;41.09;100906.14;1887720;75;21093;-61
2022/06/10 08:11:51;;;;;;;8.28;2.50;;;;;;;30.30;41.79;100908.97;1866321;77;21035;-62
2022/06/10 08:14:21;;;;;;;4.60;2.55;;;;;;;30.11;42.03;100903.04;1866297;77;21035;-62
2022/06/10 08:16:49;;;;;;;4.95;2.20;;;;;;;30.92;42.04;100905.10;1914015;74;21075;-62
2022/06/10 08:19:18;;;;;;;8.35;2.45;;;;;;;31.89;41.18;100897.02;1915083;75;21050;-63
2022/06/10 08:24:33;;;;;;;3.15;2.58;;;;;;;32.05;39.51;100902.75;1914975;75;21023;-61
2022/06/10 08:27:02;;;;;;;4.20;2.45;;;;;;;31.24;39.93;100907.04;1914906;75;21007;-61
2022/06/10 08:29:30;;;;;;;6.70;2.50;;;;;;;30.82;40.47;100907.22;1914966;75;21571;-63
2022/06/10 08:32:00;;;;;;;5.47;2.15;;;;;;;30.59;40.56;100898.14;1915129;75;21602;-62
2022/06/10 08:34:29;;;;;;;3.08;2.17;;;;;;;30.28;40.85;100906.44;1915014;75;21120;-62
2022/06/10 08:36:57;;;;;;;4.40;2.42;;;;;;;30.10;41.28;100901.86;1915043;75;21532;-62
2022/06/10 08:39:26;;;;;;;4.25;2.58;;;;;;;30.05;41.46;100893.45;1915096;74;21109;-62
2022/06/10 08:42:14;;;;;;;3.02;2.25;;;;;;;30.83;41.06;100900.24;1914915;75;21102;-62
2022/06/10 08:44:58;;;;;;;5.45;2.35;;;;;;;31.81;40.04;100899.38;1914989;75;21026;-62
2022/06/10 08:47:35;;;;;;;5.25;2.00;;;;;;;32.55;39.16;100896.69;1866858;75;21081;-62
2022/06/10 08:50:40;;;;;;;3.58;2.00;;;;;;;33.18;38.24;100895.75;1914851;75;21050;-62
2022/06/10 08:53:15;;;;;;;6.22;2.40;;;;;;;33.34;37.79;100899.48;1914976;75;21105;-62
2022/06/10 08:56:05;;;;;;;6.72;2.60;;;;;;;32.98;37.64;100896.52;1914939;75;21039;-64
2022/06/10 08:58:36;;;;;;;4.37;2.25;;;;;;;32.37;38.02;100889.55;1914763;74;21117;-62
2022/06/10 09:01:17;;;;;;;5.05;2.67;;;;;;;31.66;38.24;100887.20;1915158;74;21039;-62
2022/06/10 09:04:06;;;;;;;6.42;2.40;;;;;;;31.68;38.60;100881.56;1914021;75;21086;-62
2022/06/10 09:06:43;;;;;;;4.17;2.40;;;;;;;32.23;38.55;100884.03;1854466;75;21513;-63
2022/06/10 09:09:14;;;;;;;3.70;2.00;;;;;;;32.05;37.61;100876.34;1914650;75;21500;-62
2022/06/10 09:11:46;;;;;;;9.23;2.50;;;;;;;32.42;37.54;100885.19;1914947;75;21525;-64
2022/06/10 09:14:24;;;;;;;5.33;2.58;;;;;;;32.79;36.85;100884.99;1914138;75;21497;-64
2022/06/10 09:17:01;;;;;;;5.42;2.30;;;;;;;33.29;36.69;100888.33;1907391;75;21075;-63
2022/06/10 09:19:36;;;;;;;3.75;2.02;;;;;;;33.84;35.99;100886.33;1905428;75;21181;-62
2022/06/10 09:22:17;;;;;;;4.55;2.12;;;;;;;34.41;35.57;100889.98;1905528;75;21039;-63
2022/06/10 09:25:04;;;;;;;5.22;2.70;;;;;;;34.72;34.29;100886.55;1904556;75;21043;-59
2022/06/10 09:27:35;;;;;;;3.65;2.35;;;;;;;34.65;34.14;100883.50;1905089;75;21113;-65
2022/06/10 09:30:07;;;;;;;6.92;3.40;;;;;;;34.69;34.40;100887.51;1905466;75;21109;-64
2022/06/10 09:32:56;;;;;;;5.35;3.30;;;;;;;34.76;33.77;100884.22;1905587;75;21536;-66
2022/06/10 09:35:37;;;;;;;5.60;2.92;;;;;;;34.01;34.71;100890.00;1905544;75;21079;-65
2022/06/10 09:38:11;;;;;;;7.05;2.62;;;;;;;33.31;35.56;100883.53;1905335;75;21109;-66
2022/06/10 09:40:42;;;;;;;7.47;3.37;;;;;;;32.79;36.70;100884.46;1905249;75;21109;-60
2022/06/10 09:43:17;;;;;;;3.30;2.42;;;;;;;32.41;37.25;100881.33;1905836;75;21035;-62
2022/06/10 09:45:51;;;;;;;4.00;2.47;;;;;;;32.12;37.47;100883.22;1905139;75;21035;-62
2022/06/10 09:48:49;;;;;;;6.28;2.77;;;;;;;32.15;37.64;100872.44;1905248;75;21031;-61
2022/06/10 09:51:38;;;;;;;7.78;2.52;;;;;;;32.46;37.79;100869.28;1905436;75;21525;-62
2022/06/10 09:54:31;;;;;;;7.42;2.62;;;;;;;33.11;37.44;100870.31;1905435;75;21051;-60
2022/06/10 09:57:14;;;;;;;7.75;2.67;;;;;;;33.68;36.95;100874.48;1904257;75;21184;-62
2022/06/10 09:59:54;;;;;;;4.90;2.98;;;;;;;33.71;36.93;100872.68;1904279;75;21043;-61
2022/06/10 10:02:43;;;;;;;4.17;2.80;;;;;;;33.58;37.00;100863.92;1905584;75;21039;-61
2022/06/10 10:05:36;;;;;;;5.20;2.50;;;;;;;33.31;37.14;100864.44;1905294;75;21466;-60
2022/06/10 10:08:18;;;;;;;4.67;2.92;;;;;;;32.86;37.74;100861.33;1904588;75;21082;-63
2022/06/10 10:10:56;;;;;;;8.78;3.50;;;;;;;32.31;38.38;100855.78;1905523;75;21454;-63
2022/06/10 10:13:39;;;;;;;5.83;3.10;;;;;;;31.90;38.89;100854.63;1904118;75;21032;-64
2022/06/10 10:16:14;;;;;;;7.08;3.40;;;;;;;31.64;39.36;100858.52;1905444;75;21141;-62
2022/06/10 10:18:55;;;;;;;5.70;3.37;;;;;;;31.83;39.52;100846.93;1905641;75;21043;-62
2022/06/10 10:21:26;;;;;;;6.17;2.72;;;;;;;31.80;39.39;100854.15;1900733;75;21477;-61
2022/06/10 10:26:50;;;;;;;7.15;3.27;;;;;;;32.74;38.87;100853.40;1848245;75;21054;-65
2022/06/10 10:29:27;;;;;;;6.45;3.08;;;;;;;32.90;38.55;100853.05;1872084;75;21035;-67
2022/06/10 10:32:15;;;;;;;3.15;2.22;;;;;;;33.22;38.14;100847.94;1883578;75;21024;-65
2022/06/10 10:34:47;;;;;;;4.15;2.62;;;;;;;33.58;37.85;100846.18;1904946;75;21106;-66
2022/06/10 10:37:31;;;;;;;5.45;3.05;;;;;;;33.74;37.57;100853.16;1905019;75;21048;-67
2022/06/10 10:40:05;;;;;;;7.10;2.75;;;;;;;33.90;37.42;100849.17;1904875;75;21511;-64
2022/06/10 10:42:37;;;;;;;8.65;3.02;;;;;;;33.59;37.49;100850.60;1865897;75;21028;-66
2022/06/10 10:45:08;;;;;;;8.98;2.92;;;;;;;33.47;37.56;100852.27;1854199;75;21047;-66
2022/06/10 10:47:38;;;;;;;3.58;2.05;;;;;;;33.50;37.46;100851.86;1855479;77;21040;-66
2022/06/10 10:50:34;;;;;;;5.20;2.75;;;;;;;33.46;37.57;100855.52;1864430;77;21105;-65
2022/06/10 10:53:22;;;;;;;9.85;2.70;;;;;;;33.41;37.39;100848.48;1872615;76;21117;-66
2022/06/10 10:55:53;;;;;;;6.15;2.83;;;;;;;33.21;37.60;100851.70;1813028;79;21614;-65
2022/06/10 10:58:37;;;;;;;7.40;3.00;;;;;;;32.78;37.69;100839.70;1856063;75;21091;-63
2022/06/10 11:01:09;;;;;;;9.33;3.55;;;;;;;32.46;38.01;100847.47;1872642;76;21280;-62
2022/06/10 11:03:46;;;;;;;4.00;2.95;;;;;;;32.15;38.64;100841.11;1872735;75;21200;-63
2022/06/10 11:06:30;;;;;;;3.70;2.80;;;;;;;31.82;38.94;100842.54;1872804;77;21024;-62
2022/06/10 11:09:18;;;;;;;10.63;5.22;;;;;;;31.72;38.81;100842.03;1870769;76;21024;-63
2022/06/10 11:11:50;;;;;;;5.42;3.05;;;;;;;31.48;39.24;100840.56;1863387;77;21244;-63
2022/06/10 11:14:33;;;;;;;5.22;2.30;;;;;;;31.46;39.52;100847.52;1846375;77;21048;-64
2022/06/10 11:17:14;;;;;;;4.00;2.92;;;;;;;31.48;39.50;100844.11;1841529;78;21070;-65
2022/06/10 11:19:51;;;;;;;4.72;2.70;;;;;;;31.36;39.34;100836.14;1841270;78;21094;-62
2022/06/10 11:22:40;;;;;;;8.18;2.60;;;;;;;31.10;39.33;100838.91;1840575;78;21605;-62
2022/06/10 11:25:14;;;;;;;6.08;3.15;;;;;;;30.99;39.58;100839.42;1840399;77;21063;-61
2022/06/10 11:27:41;;;;;;;8.98;3.72;;;;;;;30.79;40.15;100841.86;1824239;77;21090;-62
2022/06/10 11:30:16;;;;;;;5.95;3.70;;;;;;;30.60;40.75;100837.34;1816224;79;21055;-66
2022/06/10 11:32:51;;;;;;;5.10;3.52;;;;;;;30.47;41.19;100830.88;1832220;78;21051;-68
2022/06/10 11:35:35;;;;;;;9.93;4.15;;;;;;;30.43;41.34;100827.70;1841394;78;21129;-68
2022/06/10 11:38:18;;;;;;;5.20;2.58;;;;;;;30.68;41.39;100829.60;1841351;78;21071;-67
2022/06/10 11:40:52;;;;;;;3.65;2.80;;;;;;;31.04;41.15;100811.14;1841112;78;21126;-67
2022/06/10 11:43:36;;;;;;;5.33;3.08;;;;;;;31.36;41.02;100812.48;1841340;77;21584;-66
2022/06/10 11:46:29;;;;;;;4.15;2.60;;;;;;;31.57;40.74;100812.17;1841426;78;21059;-68
2022/06/10 11:48:59;;;;;;;;;;;;;;;31.80;40.22;100813.81;1844295;77;21059;-67
2022/06/10 11:51:33;;;;;;;6.85;3.98;;;;;;;31.78;39.67;100810.45;1841327;78;20127;-67
2022/06/10 11:54:05;;;;;;;9.90;3.10;;;;;;;31.74;39.86;100808.64;1841322;78;21079;-65
2022/06/10 11:59:54;;;;;;;5.12;3.05;;;;;;;31.90;40.10;100802.91;1841192;78;21055;-67
2022/06/10 12:02:41;;;;;;;6.92;3.22;;;;;;;32.01;40.26;100807.48;1841293;78;21050;-66
2022/06/10 12:05:44;;;;;;;6.55;3.22;;;;;;;31.69;40.32;100807.06;1863282;77;21048;-64
2022/06/10 12:08:39;;;;;;;7.97;3.65;;;;;;;31.26;40.58;100820.65;1872668;77;21043;-62
2022/06/10 12:11:19;;;;;;;5.28;2.75;;;;;;;30.84;41.12;100834.48;1872745;77;21047;-61
2022/06/10 12:14:13;;;;;;;5.00;3.30;;;;;;;30.61;41.49;100842.26;1872460;76;21566;-62
2022/06/10 12:16:44;;;;;;;8.95;3.08;;;;;;;30.47;41.72;100848.54;1870218;77;21059;-62
2022/06/10 12:19:16;;;;;;;9.18;3.22;;;;;;;30.32;42.12;100849.38;1872706;76;21361;-61
2022/06/10 12:21:45;;;;;;;5.10;3.15;;;;;;;30.14;42.77;100841.59;1898660;75;21102;-61